Time;durP1;ratioP1;P1;durP2;ratioP2;P2;SDS_P1;SDS_P2;PMS_P1;PMS_P2;Temp;Humidity;BMP_temperature;BMP_pressure;BME280_temperature;BME280_humidity;BME280_pressure;Samples;Min_cycle;Max_cycle;Signal;HPM_P1;HPM_P2
2023/01/02 00:01:44;;;;;;;5.30;4.30;;;11.40;78.30;;;;;;5039494;28;20490;-62
2023/01/02 00:04:10;;;;;;;4.68;3.80;;;11.40;78.30;;;;;;5022983;28;20057;-63
2023/01/02 00:06:37;;;;;;;5.00;3.78;;;11.40;78.30;;;;;;5043171;28;20037;-63
2023/01/02 00:09:04;;;;;;;5.40;4.32;;;11.30;78.30;;;;;;5031146;28;20040;-65
2023/01/02 00:11:30;;;;;;;5.60;4.18;;;11.30;78.30;;;;;;5030429;28;20059;-65
2023/01/02 00:13:55;;;;;;;5.22;4.30;;;11.30;78.50;;;;;;5031599;28;20061;-64
2023/01/02 00:16:22;;;;;;;4.38;3.80;;;11.30;78.40;;;;;;5034512;28;20037;-62
2023/01/02 00:18:48;;;;;;;5.65;4.38;;;11.30;78.30;;;;;;5037726;28;20036;-65
2023/01/02 00:21:14;;;;;;;5.57;4.00;;;11.30;78.30;;;;;;5041412;28;20036;-64
2023/01/02 00:23:40;;;;;;;5.43;4.10;;;11.30;78.40;;;;;;5031534;28;20029;-63
2023/01/02 00:26:05;;;;;;;4.35;3.88;;;11.40;78.30;;;;;;5037686;28;20041;-60
2023/01/02 00:28:32;;;;;;;4.43;3.80;;;11.30;78.30;;;;;;5032023;28;20029;-63
2023/01/02 00:31:04;;;;;;;4.78;3.78;;;11.40;78.40;;;;;;5030766;28;20041;-63
2023/01/02 00:33:29;;;;;;;4.47;3.83;;;11.40;78.30;;;;;;5031360;28;20037;-62
2023/01/02 00:35:55;;;;;;;6.22;4.18;;;11.40;78.20;;;;;;5034205;28;20033;-64
2023/01/02 00:38:20;;;;;;;4.55;3.60;;;11.40;78.00;;;;;;5026177;28;20034;-64
2023/01/02 00:40:46;;;;;;;4.38;3.53;;;11.40;78.00;;;;;;5031063;28;20033;-64
2023/01/02 00:43:12;;;;;;;4.72;4.05;;;11.40;78.00;;;;;;5041010;28;20037;-63
2023/01/02 00:45:37;;;;;;;4.50;3.90;;;11.40;78.00;;;;;;5030387;28;20543;-63
2023/01/02 00:48:03;;;;;;;5.22;3.75;;;11.40;78.20;;;;;;5034659;28;20029;-62
2023/01/02 00:50:28;;;;;;;3.95;3.50;;;11.40;78.10;;;;;;5035952;28;20033;-64
2023/01/02 00:52:54;;;;;;;4.68;3.70;;;11.40;78.10;;;;;;5039115;28;20104;-63
2023/01/02 00:55:20;;;;;;;5.65;4.10;;;11.40;78.10;;;;;;5031391;28;20129;-65
2023/01/02 00:57:45;;;;;;;5.25;4.00;;;11.50;78.20;;;;;;5031799;28;20025;-63
2023/01/02 01:00:11;;;;;;;3.90;3.50;;;11.50;78.10;;;;;;5031898;28;20041;-59
2023/01/02 01:02:37;;;;;;;6.18;3.88;;;11.50;78.00;;;;;;5036892;28;20471;-58
2023/01/02 01:05:03;;;;;;;5.20;3.92;;;11.50;78.00;;;;;;5031051;28;20078;-57
2023/01/02 01:07:29;;;;;;;5.55;4.47;;;11.50;78.00;;;;;;5027013;28;20045;-57
2023/01/02 01:09:54;;;;;;;4.95;3.78;;;11.50;77.90;;;;;;5035339;28;20037;-57
2023/01/02 01:12:20;;;;;;;5.68;4.40;;;11.50;77.80;;;;;;5030117;28;20032;-57
2023/01/02 01:14:45;;;;;;;4.63;4.10;;;11.50;77.80;;;;;;5038796;28;20028;-58
2023/01/02 01:17:11;;;;;;;6.03;4.18;;;11.50;77.90;;;;;;5030904;28;20452;-57
2023/01/02 01:19:37;;;;;;;5.03;3.80;;;11.50;77.80;;;;;;5032317;28;20029;-58
2023/01/02 01:22:02;;;;;;;6.70;4.38;;;11.50;77.80;;;;;;5038948;28;20033;-57
2023/01/02 01:24:28;;;;;;;5.68;4.70;;;11.50;77.80;;;;;;5033331;28;20594;-58
2023/01/02 01:26:54;;;;;;;6.10;3.95;;;11.50;77.80;;;;;;5050738;28;20041;-63
2023/01/02 01:29:20;;;;;;;8.60;4.18;;;11.60;77.80;;;;;;5038592;28;20044;-63
2023/01/02 01:31:45;;;;;;;4.85;3.63;;;11.60;77.80;;;;;;5038293;28;20470;-62
2023/01/02 01:34:12;;;;;;;4.55;3.85;;;11.60;77.80;;;;;;5035826;28;20033;-64
2023/01/02 01:36:37;;;;;;;4.90;4.10;;;11.60;77.80;;;;;;5038058;28;20138;-64
2023/01/02 01:39:03;;;;;;;5.32;4.10;;;11.60;77.80;;;;;;5034619;28;20034;-64
2023/01/02 01:41:29;;;;;;;4.70;3.72;;;11.60;77.70;;;;;;5034262;28;20041;-63
2023/01/02 01:44:00;;;;;;;5.25;3.95;;;11.60;77.70;;;;;;5043466;28;20424;-62
2023/01/02 01:46:25;;;;;;;5.07;4.10;;;11.60;77.70;;;;;;5036580;28;20037;-64
2023/01/02 01:49:10;;;;;;;5.28;3.95;;;11.60;77.70;;;;;;5044150;28;20490;-64
2023/01/02 01:51:49;;;;;;;4.15;3.33;;;11.60;77.60;;;;;;5043552;28;20030;-64
2023/01/02 01:54:20;;;;;;;5.43;3.95;;;11.60;77.60;;;;;;5032698;28;20086;-64
2023/01/02 01:56:52;;;;;;;4.80;3.90;;;11.60;77.60;;;;;;5041452;28;20039;-64
2023/01/02 01:59:18;;;;;;;5.38;3.40;;;11.60;77.60;;;;;;5041260;28;20042;-64
2023/01/02 02:01:46;;;;;;;5.30;3.88;;;11.70;77.70;;;;;;5034896;28;20026;-62
2023/01/02 02:04:13;;;;;;;4.60;3.45;;;11.60;77.60;;;;;;5029071;28;20448;-64
2023/01/02 02:06:39;;;;;;;4.65;3.83;;;11.60;77.60;;;;;;5037176;28;20029;-64
2023/01/02 02:09:16;;;;;;;5.78;4.10;;;11.60;78.30;;;;;;5033707;28;20128;-63
2023/01/02 02:11:43;;;;;;;5.43;4.00;;;11.60;77.60;;;;;;5064650;28;20029;-64
2023/01/02 02:14:08;;;;;;;4.70;3.50;;;11.60;77.60;;;;;;5039027;28;20430;-64
2023/01/02 02:16:52;;;;;;;5.07;3.72;;;11.70;77.60;;;;;;5032856;28;20125;-61
2023/01/02 02:19:55;;;;;;;5.00;3.60;;;11.70;77.70;;;;;;5044559;28;20029;-61
2023/01/02 02:22:41;;;;;;;5.05;3.65;;;11.70;77.60;;;;;;5036345;28;20450;-64
2023/01/02 02:25:44;;;;;;;5.13;4.60;;;11.60;77.60;;;;;;5030594;28;20037;-63
2023/01/02 02:28:19;;;;;;;4.80;3.90;;;11.60;77.40;;;;;;5025097;28;20407;-64
2023/01/02 02:30:55;;;;;;;5.05;3.42;;;11.60;77.50;;;;;;5036463;28;20030;-64
2023/01/02 02:33:54;;;;;;;4.57;3.30;;;11.60;77.50;;;;;;5033328;28;20029;-64
2023/01/02 02:37:04;;;;;;;4.43;3.63;;;11.70;77.40;;;;;;5036103;28;20083;-64
2023/01/02 02:39:37;;;;;;;3.88;3.33;;;11.60;77.40;;;;;;5022603;28;20390;-62
2023/01/02 02:42:15;;;;;;;5.60;3.70;;;11.60;77.50;;;;;;5055835;28;20368;-66
2023/01/02 02:44:56;;;;;;;4.53;3.85;;;11.60;77.40;;;;;;5033552;28;20503;-65
2023/01/02 02:47:37;;;;;;;5.43;3.88;;;11.60;77.50;;;;;;5034417;28;20041;-64
2023/01/02 02:50:10;;;;;;;5.30;4.10;;;11.60;77.60;;;;;;5032601;28;20387;-64
2023/01/02 02:53:02;;;;;;;5.03;3.90;;;11.60;77.50;;;;;;5033814;28;20036;-60
2023/01/02 02:55:31;;;;;;;;;;;11.60;77.50;;;;;;5027724;28;20030;-62
2023/01/02 02:57:59;;;;;;;4.15;3.60;;;11.50;77.40;;;;;;5038962;28;20656;-63
2023/01/02 03:00:24;;;;;;;5.32;3.88;;;11.60;77.60;;;;;;5040436;28;20045;-62
2023/01/02 03:02:51;;;;;;;4.95;3.70;;;11.60;77.50;;;;;;5032396;28;20047;-63
2023/01/02 03:05:38;;;;;;;6.28;4.28;;;11.50;77.50;;;;;;5031967;28;20140;-64
2023/01/02 03:08:11;;;;;;;5.20;3.67;;;11.50;77.50;;;;;;5034670;28;20115;-63
2023/01/02 03:10:48;;;;;;;4.30;3.50;;;11.50;77.60;;;;;;5039169;28;20025;-64
2023/01/02 03:13:32;;;;;;;4.72;4.00;;;11.50;77.70;;;;;;5032894;28;20104;-59
2023/01/02 03:16:03;;;;;;;4.63;3.60;;;11.50;77.70;;;;;;5031799;28;20033;-64
2023/01/02 03:18:44;;;;;;;4.40;3.78;;;11.50;78.30;;;;;;5031772;28;20155;-63
2023/01/02 03:21:11;;;;;;;4.30;3.53;;;11.50;77.60;;;;;;5032344;28;20033;-63
2023/01/02 03:23:43;;;;;;;4.47;3.75;;;11.50;77.70;;;;;;5034446;28;20935;-63
2023/01/02 03:26:14;;;;;;;5.75;3.88;;;11.50;77.70;;;;;;5038306;28;20100;-65
2023/01/02 03:28:43;;;;;;;5.45;3.97;;;11.50;77.70;;;;;;5024072;28;20175;-65
2023/01/02 03:31:13;;;;;;;5.43;3.80;;;11.50;77.80;;;;;;5034342;28;20045;-67
2023/01/02 03:33:45;;;;;;;4.85;4.07;;;11.50;77.80;;;;;;5045874;28;20573;-64
2023/01/02 03:36:16;;;;;;;4.38;3.80;;;11.50;77.80;;;;;;5045857;28;20048;-65
2023/01/02 03:38:59;;;;;;;3.83;3.40;;;11.50;77.80;;;;;;5034139;28;20448;-63
2023/01/02 03:41:30;;;;;;;5.20;4.22;;;11.50;77.80;;;;;;5030039;28;20024;-62
2023/01/02 03:43:59;;;;;;;4.53;3.75;;;11.40;77.90;;;;;;5038875;28;20024;-64
2023/01/02 03:46:40;;;;;;;5.22;4.07;;;11.40;77.80;;;;;;5031521;28;20044;-63
2023/01/02 03:49:09;;;;;;;6.20;3.87;;;11.40;77.90;;;;;;5033942;28;20032;-64
2023/01/02 03:51:35;;;;;;;6.88;3.95;;;11.40;77.90;;;;;;5032107;28;20049;-63
2023/01/02 03:54:03;;;;;;;5.28;4.00;;;11.40;78.00;;;;;;5036061;28;20115;-65
2023/01/02 03:56:40;;;;;;;4.85;3.80;;;11.40;78.00;;;;;;5029354;28;20033;-64
2023/01/02 03:59:31;;;;;;;5.45;3.85;;;11.40;78.00;;;;;;5030761;28;20036;-64
2023/01/02 04:02:03;;;;;;;;;;;11.40;78.10;;;;;;5035317;28;20036;-65
2023/01/02 04:04:55;;;;;;;5.35;3.40;;;11.30;78.00;;;;;;5036598;28;20081;-64
2023/01/02 04:07:59;;;;;;;5.00;3.70;;;11.30;78.10;;;;;;5030432;28;20120;-64
2023/01/02 04:10:27;;;;;;;4.40;3.83;;;11.30;78.00;;;;;;5014785;28;20041;-64
2023/01/02 04:12:56;;;;;;;5.43;4.00;;;11.30;78.20;;;;;;5036633;28;20029;-64
2023/01/02 04:15:26;;;;;;;5.28;4.07;;;11.30;78.20;;;;;;5040504;28;20029;-64
2023/01/02 04:18:01;;;;;;;4.95;4.13;;;11.30;78.30;;;;;;5031024;28;20091;-65
2023/01/02 04:20:30;;;;;;;4.38;3.63;;;11.30;78.30;;;;;;5031219;28;20108;-64
2023/01/02 04:23:06;;;;;;;5.22;3.95;;;11.30;78.40;;;;;;5033552;28;20048;-64
2023/01/02 04:25:40;;;;;;;4.75;3.80;;;11.30;78.40;;;;;;5027244;28;20038;-64
2023/01/02 04:28:16;;;;;;;4.55;3.83;;;11.30;78.40;;;;;;5036009;28;20509;-64
2023/01/02 04:31:00;;;;;;;5.15;3.90;;;11.30;78.50;;;;;;5034679;28;20091;-64
2023/01/02 04:33:28;;;;;;;5.10;3.88;;;11.20;78.30;;;;;;5029630;28;20040;-64
2023/01/02 04:35:53;;;;;;;7.20;4.20;;;11.30;78.50;;;;;;5030591;28;20041;-65
2023/01/02 04:38:19;;;;;;;4.95;4.10;;;11.20;78.40;;;;;;5038944;28;20040;-63
2023/01/02 04:40:45;;;;;;;4.93;3.90;;;11.20;78.50;;;;;;5041421;28;20368;-64
2023/01/02 04:43:19;;;;;;;5.55;4.18;;;11.20;78.40;;;;;;5032346;28;20025;-65
2023/01/02 04:45:48;;;;;;;5.05;3.83;;;11.20;78.40;;;;;;5031102;28;20052;-63
2023/01/02 04:48:15;;;;;;;5.28;4.10;;;11.20;78.50;;;;;;5030342;28;20061;-66
2023/01/02 04:50:41;;;;;;;5.55;4.43;;;11.20;78.40;;;;;;5029875;28;20033;-59
2023/01/02 04:53:08;;;;;;;5.88;4.40;;;11.20;78.50;;;;;;5030713;28;20029;-58
2023/01/02 04:55:34;;;;;;;5.65;4.60;;;11.20;78.60;;;;;;5033276;28;20029;-59
2023/01/02 04:57:59;;;;;;;5.75;4.20;;;11.20;78.50;;;;;;5039256;28;20037;-58
2023/01/02 05:00:25;;;;;;;5.28;4.10;;;11.20;78.50;;;;;;5039752;28;20029;-54
2023/01/02 05:02:50;;;;;;;5.47;4.15;;;11.20;78.60;;;;;;5037313;28;20032;-54
2023/01/02 05:05:16;;;;;;;5.22;4.00;;;11.20;78.50;;;;;;5035642;28;20132;-58
2023/01/02 05:07:42;;;;;;;6.55;3.92;;;11.20;78.60;;;;;;5038214;28;20033;-58
2023/01/02 05:10:08;;;;;;;5.68;4.30;;;11.20;78.70;;;;;;5034099;28;20360;-58
2023/01/02 05:12:35;;;;;;;5.93;5.05;;;11.20;78.70;;;;;;5047111;28;20025;-58
2023/01/02 05:15:01;;;;;;;5.85;4.60;;;11.20;78.60;;;;;;5039930;28;20087;-57
2023/01/02 05:17:27;;;;;;;6.70;4.70;;;11.20;78.60;;;;;;5035068;28;20475;-59
2023/01/02 05:19:53;;;;;;;7.60;4.80;;;11.20;78.60;;;;;;5039401;28;20098;-59
2023/01/02 05:25:04;;;;;;;5.20;4.22;;;11.20;78.60;;;;;;5033370;28;20103;-57
2023/01/02 05:27:30;;;;;;;6.03;4.63;;;11.20;78.70;;;;;;5035087;28;20037;-58
2023/01/02 05:29:55;;;;;;;4.93;4.38;;;11.20;78.70;;;;;;5036361;28;20030;-57
2023/01/02 05:32:21;;;;;;;5.60;4.78;;;11.20;79.10;;;;;;5034502;28;20464;-60
2023/01/02 05:34:47;;;;;;;5.45;4.38;;;11.20;78.60;;;;;;5034226;28;20049;-57
2023/01/02 05:37:12;;;;;;;6.43;4.53;;;11.20;78.70;;;;;;5052561;28;20071;-57
2023/01/02 05:39:38;;;;;;;6.32;4.28;;;11.20;78.70;;;;;;5036741;28;20045;-59
2023/01/02 05:42:03;;;;;;;6.18;4.55;;;11.20;78.70;;;;;;5036211;28;20040;-57
2023/01/02 05:44:29;;;;;;;7.78;4.43;;;11.30;78.90;;;;;;5027326;28;20095;-57
2023/01/02 05:46:55;;;;;;;5.93;4.65;;;11.20;78.70;;;;;;5032449;28;20072;-55
2023/01/02 05:49:20;;;;;;;6.53;5.15;;;11.20;78.80;;;;;;5032068;28;20036;-53
2023/01/02 05:51:46;;;;;;;5.82;4.70;;;11.20;78.70;;;;;;5034837;28;20034;-51
2023/01/02 05:54:11;;;;;;;5.32;4.60;;;11.30;78.70;;;;;;5034451;28;20728;-57
2023/01/02 05:56:37;;;;;;;5.43;4.50;;;11.30;78.80;;;;;;5037723;28;20041;-53
2023/01/02 05:59:07;;;;;;;6.65;5.03;;;11.30;78.80;;;;;;5036367;28;20337;-52
2023/01/02 06:04:27;;;;;;;5.78;4.40;;;11.20;78.10;;;;;;5059595;28;20411;-52
2023/01/02 06:06:53;;;;;;;5.97;4.25;;;11.30;78.50;;;;;;5049669;28;20555;-59
2023/01/02 06:09:18;;;;;;;4.70;3.83;;;11.30;78.60;;;;;;5046299;28;20119;-57
2023/01/02 06:11:44;;;;;;;6.18;4.72;;;11.30;78.60;;;;;;5046983;28;20494;-59
2023/01/02 06:14:10;;;;;;;5.38;4.22;;;11.30;78.60;;;;;;5046426;28;20069;-58
2023/01/02 06:16:39;;;;;;;5.28;4.22;;;11.30;78.60;;;;;;5059185;28;20033;-58
2023/01/02 06:19:06;;;;;;;5.20;4.10;;;11.30;78.70;;;;;;5048324;28;20037;-57
2023/01/02 06:21:32;;;;;;;6.25;4.40;;;11.40;78.60;;;;;;5047966;28;20037;-58
2023/01/02 06:23:58;;;;;;;6.13;5.10;;;11.40;78.60;;;;;;5058088;28;20507;-59
2023/01/02 06:26:26;;;;;;;5.43;4.40;;;11.30;78.70;;;;;;5053020;28;20040;-58
2023/01/02 06:28:54;;;;;;;5.88;4.30;;;11.30;78.70;;;;;;5054643;28;20595;-58
2023/01/02 06:31:22;;;;;;;5.47;4.50;;;11.30;78.80;;;;;;5064230;28;20033;-58
2023/01/02 06:33:56;;;;;;;7.05;4.70;;;11.30;78.90;;;;;;5040324;28;20041;-61
2023/01/02 06:36:22;;;;;;;6.25;4.95;;;11.30;78.90;;;;;;5063793;28;20037;-58
2023/01/02 06:38:48;;;;;;;6.70;4.60;;;11.30;79.20;;;;;;5057075;28;20747;-56
2023/01/02 06:41:14;;;;;;;5.82;4.65;;;11.40;79.20;;;;;;5050560;28;20070;-59
2023/01/02 06:43:43;;;;;;;6.45;4.78;;;11.40;79.20;;;;;;5051583;28;20090;-58
2023/01/02 06:46:10;;;;;;;5.78;4.15;;;11.50;79.10;;;;;;5047497;28;20567;-56
2023/01/02 06:48:37;;;;;;;6.18;4.88;;;11.50;79.00;;;;;;5055116;28;20142;-53
2023/01/02 06:51:07;;;;;;;7.88;4.93;;;11.60;78.90;;;;;;5058165;28;20029;-58
2023/01/02 06:53:35;;;;;;;7.22;5.15;;;11.60;78.70;;;;;;5058495;28;20068;-58
2023/01/02 06:56:01;;;;;;;5.78;4.63;;;11.70;78.80;;;;;;5052194;28;20029;-57
2023/01/02 06:58:30;;;;;;;7.22;5.70;;;11.70;78.60;;;;;;5047551;28;20029;-58
2023/01/02 07:01:01;;;;;;;5.93;4.53;;;11.70;78.50;;;;;;5061520;28;20443;-60
2023/01/02 07:03:27;;;;;;;6.93;5.00;;;11.80;78.40;;;;;;5055921;28;20104;-62
2023/01/02 07:05:53;;;;;;;7.97;5.13;;;11.80;78.30;;;;;;5055382;28;20060;-66
2023/01/02 07:08:18;;;;;;;6.57;5.22;;;11.80;78.30;;;;;;5053964;28;20025;-62
2023/01/02 07:10:44;;;;;;;8.25;5.63;;;11.90;78.20;;;;;;5056557;28;20029;-62
2023/01/02 07:13:10;;;;;;;6.10;4.65;;;11.90;78.00;;;;;;5057642;28;20666;-64
2023/01/02 07:15:35;;;;;;;5.50;4.43;;;11.90;78.00;;;;;;5049212;28;20028;-64
2023/01/02 07:18:01;;;;;;;5.72;4.80;;;11.90;78.00;;;;;;5037617;28;20034;-64
2023/01/02 07:20:27;;;;;;;5.65;4.40;;;11.90;77.90;;;;;;5033335;28;20041;-63
2023/01/02 07:22:53;;;;;;;6.80;4.70;;;11.90;77.90;;;;;;5045015;28;20029;-63
2023/01/02 07:25:19;;;;;;;5.85;4.82;;;12.00;77.90;;;;;;5035291;28;20033;-61
2023/01/02 07:27:45;;;;;;;6.90;4.70;;;12.00;77.90;;;;;;5037553;28;20459;-63
2023/01/02 07:30:11;;;;;;;5.38;4.05;;;12.00;77.80;;;;;;5038342;28;20112;-63
2023/01/02 07:32:37;;;;;;;6.60;4.90;;;12.10;77.90;;;;;;5032286;28;20074;-63
2023/01/02 07:35:03;;;;;;;6.43;4.63;;;12.10;77.70;;;;;;5034045;28;20064;-63
2023/01/02 07:37:29;;;;;;;6.43;4.55;;;12.10;77.60;;;;;;5034314;28;20056;-64
2023/01/02 07:39:54;;;;;;;5.80;5.03;;;12.20;77.70;;;;;;5044952;28;20065;-61
2023/01/02 07:42:20;;;;;;;6.47;4.75;;;12.20;77.60;;;;;;5048948;28;20033;-62
2023/01/02 07:44:46;;;;;;;8.25;4.72;;;12.20;77.50;;;;;;5036890;28;20033;-61
2023/01/02 07:47:11;;;;;;;6.90;5.00;;;12.20;77.40;;;;;;5033471;28;20346;-63
2023/01/02 07:49:37;;;;;;;7.00;5.10;;;12.20;77.40;;;;;;5039402;28;20112;-64
2023/01/02 07:52:03;;;;;;;7.00;5.47;;;12.30;77.50;;;;;;5041039;28;20022;-58
2023/01/02 07:54:28;;;;;;;5.88;4.70;;;12.30;77.40;;;;;;5033792;28;20030;-57
2023/01/02 07:56:54;;;;;;;6.40;5.50;;;12.30;77.20;;;;;;5034154;28;20030;-59
2023/01/02 07:59:20;;;;;;;7.32;5.22;;;12.30;77.30;;;;;;5034318;28;20083;-59
2023/01/02 08:01:45;;;;;;;6.07;4.78;;;12.30;77.20;;;;;;5032362;28;20087;-61
2023/01/02 08:04:11;;;;;;;8.02;5.20;;;12.30;77.20;;;;;;5037060;28;20063;-58
2023/01/02 08:06:40;;;;;;;6.15;4.95;;;12.30;77.20;;;;;;5033064;28;20052;-58
2023/01/02 08:09:05;;;;;;;6.25;4.90;;;12.30;77.20;;;;;;5037967;28;20057;-58
2023/01/02 08:11:31;;;;;;;7.00;4.93;;;12.30;77.10;;;;;;5036876;28;20068;-58
2023/01/02 08:13:57;;;;;;;6.28;4.93;;;12.40;77.10;;;;;;5043230;28;20036;-58
2023/01/02 08:16:22;;;;;;;5.80;4.88;;;12.30;77.00;;;;;;5032638;28;20021;-58
2023/01/02 08:18:53;;;;;;;6.63;5.10;;;12.40;77.10;;;;;;5032689;28;20029;-58
2023/01/02 08:21:19;;;;;;;7.43;5.43;;;12.30;77.00;;;;;;5039150;28;20033;-59
2023/01/02 08:23:44;;;;;;;5.57;4.57;;;12.40;77.20;;;;;;5032314;28;20041;-58
2023/01/02 08:26:10;;;;;;;6.53;4.88;;;12.40;77.10;;;;;;5033254;28;20372;-60
2023/01/02 08:28:38;;;;;;;7.30;5.00;;;12.40;77.10;;;;;;5035147;28;20376;-61
2023/01/02 08:31:09;;;;;;;6.50;4.97;;;12.40;77.00;;;;;;5031503;28;20128;-58
2023/01/02 08:33:34;;;;;;;7.03;5.57;;;12.40;77.00;;;;;;5041221;28;20024;-59
2023/01/02 08:36:00;;;;;;;7.75;6.10;;;12.50;76.90;;;;;;5032705;28;20353;-59
2023/01/02 08:38:26;;;;;;;7.20;5.80;;;12.50;76.80;;;;;;5032303;28;20096;-58
2023/01/02 08:40:52;;;;;;;8.25;6.32;;;12.50;76.80;;;;;;5035063;28;20091;-57
2023/01/02 08:43:17;;;;;;;7.70;5.82;;;12.50;76.70;;;;;;5032293;28;20087;-57
2023/01/02 08:45:43;;;;;;;7.07;5.00;;;12.60;76.70;;;;;;5036015;28;20040;-57
2023/01/02 08:48:09;;;;;;;6.78;4.68;;;12.60;76.80;;;;;;5032793;28;20428;-59
2023/01/02 08:50:35;;;;;;;6.30;5.20;;;12.60;76.70;;;;;;5031742;28;20396;-58
2023/01/02 08:53:00;;;;;;;6.90;5.20;;;12.60;76.60;;;;;;5027109;28;20116;-57
2023/01/02 08:55:26;;;;;;;7.10;5.50;;;12.60;76.60;;;;;;5031705;28;20030;-57
2023/01/02 08:57:52;;;;;;;7.07;5.47;;;12.60;76.70;;;;;;5043658;28;20063;-58
2023/01/02 09:00:18;;;;;;;7.47;5.75;;;12.60;76.70;;;;;;5034070;28;20112;-59
2023/01/02 09:02:43;;;;;;;7.47;5.50;;;12.60;76.70;;;;;;5037720;28;20045;-51
2023/01/02 09:05:09;;;;;;;8.10;5.40;;;12.60;76.70;;;;;;5032407;28;20464;-55
2023/01/02 09:07:35;;;;;;;5.93;5.10;;;12.60;77.30;;;;;;5036087;28;20103;-58
2023/01/02 09:10:00;;;;;;;6.97;5.28;;;12.60;76.70;;;;;;5040989;28;20468;-53
2023/01/02 09:12:26;;;;;;;7.10;5.30;;;12.60;76.50;;;;;;5036123;28;20087;-57
2023/01/02 09:14:52;;;;;;;8.95;5.95;;;12.70;76.60;;;;;;5044124;28;20116;-57
2023/01/02 09:17:17;;;;;;;7.03;5.15;;;12.70;76.40;;;;;;5048405;28;21368;-58
2023/01/02 09:19:43;;;;;;;7.28;5.65;;;12.70;76.50;;;;;;5034790;28;20095;-60
2023/01/02 09:22:10;;;;;;;6.38;5.13;;;12.70;76.70;;;;;;5043806;28;20029;-58
2023/01/02 09:24:35;;;;;;;7.32;5.43;;;12.70;76.60;;;;;;5044873;28;20029;-58
2023/01/02 09:27:01;;;;;;;5.82;4.60;;;12.70;77.30;;;;;;5046682;28;20071;-63
2023/01/02 09:29:26;;;;;;;7.47;5.70;;;12.70;76.70;;;;;;5035334;28;20110;-63
2023/01/02 09:31:52;;;;;;;7.13;5.20;;;12.70;76.60;;;;;;5040834;28;20057;-54
2023/01/02 09:34:18;;;;;;;8.10;5.60;;;12.80;76.60;;;;;;5042387;28;20036;-59
2023/01/02 09:36:44;;;;;;;7.20;5.40;;;12.80;76.50;;;;;;5042209;28;20030;-64
2023/01/02 09:39:09;;;;;;;6.63;5.40;;;12.80;76.50;;;;;;5033661;28;20033;-64
2023/01/02 09:41:46;;;;;;;8.20;6.05;;;12.80;76.40;;;;;;5047556;28;20442;-59
2023/01/02 09:44:37;;;;;;;6.85;5.75;;;12.80;76.20;;;;;;5038440;28;20029;-59
2023/01/02 09:47:07;;;;;;;6.50;4.60;;;12.80;75.90;;;;;;5026519;28;20030;-56
2023/01/02 09:49:43;;;;;;;6.80;5.10;;;12.70;75.80;;;;;;5035921;28;20041;-59
2023/01/02 09:52:20;;;;;;;6.65;4.60;;;12.70;75.80;;;;;;5045483;28;20060;-57
2023/01/02 09:54:46;;;;;;;7.05;5.47;;;12.60;75.80;;;;;;5043119;28;20030;-56
2023/01/02 09:57:23;;;;;;;7.15;5.72;;;12.50;75.80;;;;;;5033453;28;20099;-58
2023/01/02 10:00:17;;;;;;;6.28;5.20;;;12.50;75.90;;;;;;5032655;28;20108;-59
2023/01/02 10:03:22;;;;;;;6.65;4.85;;;12.40;75.90;;;;;;5033350;28;20049;-58
2023/01/02 10:06:05;;;;;;;5.72;4.68;;;12.40;75.90;;;;;;5031229;28;20416;-57
2023/01/02 10:08:40;;;;;;;5.55;4.40;;;12.40;75.70;;;;;;5037422;28;21235;-57
2023/01/02 10:11:22;;;;;;;5.05;4.50;;;12.30;75.60;;;;;;5040678;28;20033;-51
2023/01/02 10:14:08;;;;;;;5.78;4.45;;;12.30;75.60;;;;;;5036855;28;20391;-54
2023/01/02 10:16:41;;;;;;;5.63;4.65;;;12.30;75.50;;;;;;5031029;28;20037;-58
2023/01/02 10:19:27;;;;;;;5.45;4.40;;;12.20;75.50;;;;;;5029125;28;20471;-50
2023/01/02 10:21:57;;;;;;;7.57;4.95;;;12.30;75.50;;;;;;5029380;28;20029;-56
2023/01/02 10:24:27;;;;;;;6.18;4.63;;;12.20;75.60;;;;;;5032223;28;20030;-52
2023/01/02 10:26:53;;;;;;;5.67;4.60;;;12.20;75.80;;;;;;5042302;28;20595;-68
2023/01/02 10:29:34;;;;;;;6.20;4.65;;;12.20;75.90;;;;;;5038886;28;20258;-66
2023/01/02 10:32:15;;;;;;;6.15;4.97;;;12.20;75.90;;;;;;5045873;28;20102;-68
2023/01/02 10:34:50;;;;;;;9.10;5.00;;;12.20;76.00;;;;;;5032399;28;20033;-70
2023/01/02 10:37:16;;;;;;;7.53;5.13;;;12.20;76.00;;;;;;5036633;28;20025;-71
2023/01/02 10:39:45;;;;;;;6.07;4.95;;;12.20;76.00;;;;;;5033775;28;20041;-70
2023/01/02 10:42:13;;;;;;;6.05;4.78;;;12.20;76.10;;;;;;5030539;28;20037;-69
2023/01/02 10:44:41;;;;;;;5.78;4.55;;;12.20;76.20;;;;;;5032584;28;20492;-61
2023/01/02 10:47:18;;;;;;;6.63;4.97;;;12.10;76.20;;;;;;5041847;28;20025;-69
2023/01/02 10:49:44;;;;;;;7.47;5.00;;;12.10;76.30;;;;;;5030272;28;20021;-70
2023/01/02 10:52:31;;;;;;;8.15;5.38;;;12.10;76.40;;;;;;5041986;28;20477;-57
2023/01/02 10:54:58;;;;;;;7.35;5.00;;;12.10;76.60;;;;;;5037073;28;20036;-56
2023/01/02 10:57:41;;;;;;;5.82;4.93;;;12.00;76.70;;;;;;5034381;28;20454;-59
2023/01/02 11:00:25;;;;;;;5.85;4.70;;;12.00;76.70;;;;;;5035010;28;20541;-57
2023/01/02 11:03:04;;;;;;;6.70;5.30;;;12.00;76.80;;;;;;5043800;28;20049;-59
2023/01/02 11:05:30;;;;;;;8.20;5.78;;;11.90;76.80;;;;;;5038249;28;20037;-57
2023/01/02 11:07:57;;;;;;;7.07;5.32;;;11.90;77.00;;;;;;5044169;28;20379;-57
2023/01/02 11:10:32;;;;;;;7.38;5.63;;;11.80;77.00;;;;;;5042173;28;20029;-67
2023/01/02 11:13:03;;;;;;;7.28;5.35;;;11.80;77.10;;;;;;5039896;28;20091;-69
2023/01/02 11:15:33;;;;;;;7.68;5.70;;;11.80;77.20;;;;;;5038353;28;20458;-56
2023/01/02 11:18:01;;;;;;;6.28;5.15;;;11.70;77.40;;;;;;5048513;28;20044;-57
2023/01/02 11:20:30;;;;;;;8.50;6.05;;;11.70;78.10;;;;;;5040788;28;20036;-62
2023/01/02 11:23:00;;;;;;;6.95;5.30;;;11.80;77.70;;;;;;5033266;28;20044;-62
2023/01/02 11:25:39;;;;;;;8.45;6.05;;;11.80;77.70;;;;;;5039192;28;20083;-58
2023/01/02 11:28:12;;;;;;;7.80;5.55;;;11.80;77.60;;;;;;5040138;28;20060;-58
2023/01/02 11:30:48;;;;;;;7.38;5.85;;;11.80;77.70;;;;;;5037099;28;20040;-57
2023/01/02 11:33:14;;;;;;;7.07;5.35;;;11.80;77.70;;;;;;5044304;28;20029;-57
2023/01/02 11:35:53;;;;;;;6.22;5.45;;;11.80;77.80;;;;;;5048304;28;20306;-61
2023/01/02 11:38:22;;;;;;;6.40;5.38;;;11.80;77.80;;;;;;5042177;28;20072;-62
2023/01/02 11:41:19;;;;;;;6.93;5.10;;;11.80;77.80;;;;;;5032692;28;20136;-58
2023/01/02 11:43:56;;;;;;;6.78;5.28;;;11.90;77.80;;;;;;5049254;28;20471;-58
2023/01/02 11:46:35;;;;;;;5.57;4.95;;;11.90;77.90;;;;;;5038086;28;20511;-62
2023/01/02 11:49:10;;;;;;;6.82;5.28;;;11.90;77.90;;;;;;5040230;28;20112;-64
2023/01/02 11:51:38;;;;;;;7.47;5.95;;;12.00;77.90;;;;;;5035273;28;20033;-58
2023/01/02 11:54:11;;;;;;;7.68;5.43;;;12.00;77.80;;;;;;5042657;28;20044;-58
2023/01/02 11:56:40;;;;;;;7.13;5.72;;;12.10;77.80;;;;;;5044955;28;20016;-59
2023/01/02 11:59:33;;;;;;;7.15;6.05;;;12.10;77.70;;;;;;5038880;28;20120;-58
2023/01/02 12:02:04;;;;;;;8.38;6.72;;;12.10;77.60;;;;;;5039998;28;20695;-63
2023/01/02 12:04:30;;;;;;;7.65;6.53;;;12.10;77.50;;;;;;5039841;28;20043;-63
2023/01/02 12:07:44;;;;;;;9.55;7.10;;;12.10;77.40;;;;;;5047396;28;20033;-58
2023/01/02 12:10:22;;;;;;;6.60;5.53;;;12.20;77.50;;;;;;5013251;28;20558;-59
2023/01/02 12:13:14;;;;;;;8.52;6.40;;;12.20;77.50;;;;;;5024351;28;20110;-56
2023/01/02 12:16:05;;;;;;;8.00;6.22;;;12.20;77.40;;;;;;5040954;28;20050;-56
2023/01/02 12:18:49;;;;;;;7.53;6.22;;;12.20;77.20;;;;;;5032369;28;20563;-55
2023/01/02 12:21:27;;;;;;;8.18;6.13;;;12.20;77.30;;;;;;5037616;28;20373;-60
2023/01/02 12:24:18;;;;;;;8.57;6.65;;;12.30;77.90;;;;;;5045211;28;20049;-60
2023/01/02 12:27:23;;;;;;;7.23;5.50;;;12.30;77.20;;;;;;5030130;28;20496;-60
2023/01/02 12:29:52;;;;;;;7.22;5.70;;;12.30;77.10;;;;;;5018598;28;21007;-60
2023/01/02 12:32:37;;;;;;;7.50;5.65;;;12.20;77.10;;;;;;5027480;28;20353;-52
2023/01/02 12:35:40;;;;;;;7.50;5.30;;;12.30;77.20;;;;;;5026749;28;20033;-54
2023/01/02 12:38:08;;;;;;;6.47;5.00;;;12.30;77.20;;;;;;5031976;28;20030;-58
2023/01/02 12:40:48;;;;;;;6.45;4.63;;;12.30;77.30;;;;;;5021627;28;20037;-66
2023/01/02 12:43:28;;;;;;;6.13;4.90;;;12.20;77.20;;;;;;5021507;28;20041;-63
2023/01/02 12:46:13;;;;;;;6.80;5.25;;;12.30;77.30;;;;;;5024865;28;20042;-58
2023/01/02 12:49:08;;;;;;;8.05;5.93;;;12.30;77.30;;;;;;5023740;28;20030;-58
2023/01/02 12:51:33;;;;;;;6.10;5.15;;;12.30;77.20;;;;;;5026540;28;20495;-58
2023/01/02 12:54:23;;;;;;;6.65;5.40;;;12.30;77.20;;;;;;5028076;28;20068;-58
2023/01/02 12:57:26;;;;;;;7.95;5.50;;;12.30;77.20;;;;;;5029279;28;20092;-58
2023/01/02 13:00:17;;;;;;;6.95;5.32;;;12.30;77.00;;;;;;5028093;28;20039;-59
2023/01/02 13:03:16;;;;;;;9.15;5.95;;;12.30;77.00;;;;;;5022834;28;20672;-58
2023/01/02 13:05:47;;;;;;;8.18;6.20;;;12.30;77.00;;;;;;5024507;28;20025;-58
2023/01/02 13:08:13;;;;;;;7.55;6.20;;;12.30;77.00;;;;;;5030325;28;20037;-58
2023/01/02 13:10:39;;;;;;;7.57;6.45;;;12.30;77.00;;;;;;5031212;28;20037;-59
2023/01/02 13:13:04;;;;;;;9.25;5.95;;;12.30;77.00;;;;;;5033241;28;20037;-58
2023/01/02 13:15:35;;;;;;;7.43;6.05;;;12.30;77.00;;;;;;5028015;28;20030;-54